Farmersville's Hourly Summary for Wednesday, July 11, 2018
Hour Temp
(f)
RH
(%)
Solar Rad.
(MJ/m2)
Rainfall
(in)
Wind
(mph)
7/11/2018 12:00 AM 77 75 0 0 0.54
7/11/2018 1:00 AM 76 80 0 0 0
7/11/2018 2:00 AM 76 81 0 0 0
7/11/2018 3:00 AM 74 85 0 0 0
7/11/2018 4:00 AM 74 87 0 0 0
7/11/2018 5:00 AM 74 99 0 0 0
7/11/2018 6:00 AM 74 99 0 0 0
7/11/2018 7:00 AM 74 99 0.03 0 0.02
7/11/2018 8:00 AM 75 100 0.18 0 0.16
7/11/2018 9:00 AM 78 82 0.57 0 0.85
7/11/2018 10:00 AM 83 64 1.22 0 2.2
7/11/2018 11:00 AM 87 58 1.84 0 2.1
7/11/2018 12:00 PM 89 49 2.21 0 2.86
7/11/2018 1:00 PM 91 45 3.14 0 4.44
7/11/2018 2:00 PM 90 44 0.91 0 3.68
7/11/2018 3:00 PM 92 41 2.3 0 3.05
7/11/2018 4:00 PM 95 33 2.45 0 3.13
7/11/2018 5:00 PM 96 36 2.22 0 3.84
7/11/2018 6:00 PM 92 38 0.52 0 2.64
7/11/2018 7:00 PM 90 53 0.89 0 2.96
7/11/2018 8:00 PM 88 53 0.37 0 2.35
7/11/2018 9:00 PM 84 59 0.03 0 0.73
7/11/2018 10:00 PM 82 65 0 0 1.13
7/11/2018 11:00 PM 80 67 0 0 2.02
Data Summary 82 66 18.88 0.00 1.61